createdAt,value
2018-07-12T00:01:49.998Z,8.53
2018-07-12T00:04:52.706Z,7.20
2018-07-12T00:07:55.668Z,5.50
2018-07-12T00:10:58.385Z,7.30
2018-07-12T00:14:01.241Z,10.33
2018-07-12T00:17:04.042Z,4.77
2018-07-12T00:20:06.975Z,5.20
2018-07-12T00:23:09.847Z,5.90
2018-07-12T00:26:12.578Z,6.43
2018-07-12T00:29:15.409Z,6.63
2018-07-12T00:32:18.108Z,7.90
2018-07-12T00:35:20.811Z,9.73
2018-07-12T00:38:23.509Z,6.10
2018-07-12T00:41:26.248Z,11.37
2018-07-12T00:44:29.193Z,9.70
2018-07-12T00:47:32.037Z,9.80
2018-07-12T00:50:34.729Z,8.77
2018-07-12T00:53:37.907Z,8.40
2018-07-12T00:56:40.619Z,5.87
2018-07-12T00:59:43.521Z,8.07
2018-07-12T01:02:46.380Z,12.13
2018-07-12T01:05:50.285Z,13.50
2018-07-12T01:08:53.123Z,12.10
2018-07-12T01:11:56.738Z,9.30
2018-07-12T01:15:00.121Z,7.77
2018-07-12T01:18:02.817Z,5.75
2018-07-12T01:21:06.736Z,9.23
2018-07-12T01:24:09.443Z,10.03
2018-07-12T01:27:12.409Z,12.93
2018-07-12T01:30:15.109Z,10.57
2018-07-12T01:33:18.044Z,9.05
2018-07-12T01:36:20.778Z,8.03
2018-07-12T01:39:23.470Z,9.07
2018-07-12T01:42:26.440Z,8.73
2018-07-12T01:45:29.371Z,7.40
2018-07-12T01:48:32.078Z,9.73
2018-07-12T01:51:35.374Z,12.47
2018-07-12T01:54:38.142Z,8.53
2018-07-12T01:57:40.847Z,7.33
2018-07-12T02:00:43.870Z,6.10
2018-07-12T02:03:46.652Z,6.83
2018-07-12T02:06:49.383Z,6.63
2018-07-12T02:09:52.115Z,6.83
2018-07-12T02:12:55.019Z,9.90
2018-07-12T02:15:57.750Z,10.13
2018-07-12T02:19:00.463Z,13.63
2018-07-12T02:22:03.174Z,9.70
2018-07-12T02:25:05.898Z,18.17
2018-07-12T02:28:08.613Z,12.33
2018-07-12T02:31:11.339Z,15.77
2018-07-12T02:34:14.086Z,10.43
2018-07-12T02:37:17.800Z,9.17
2018-07-12T02:40:20.525Z,7.20
2018-07-12T02:43:23.349Z,5.93
2018-07-12T02:46:26.062Z,8.10
2018-07-12T02:49:29.027Z,5.57
2018-07-12T02:52:32.623Z,6.23
2018-07-12T02:55:35.326Z,6.67
2018-07-12T02:58:39.246Z,9.67
2018-07-12T03:01:41.941Z,8.47
2018-07-12T03:04:44.665Z,7.50
2018-07-12T03:07:47.410Z,6.00
2018-07-12T03:10:50.124Z,6.90
2018-07-12T03:13:53.006Z,6.93
2018-07-12T03:16:55.796Z,6.93
2018-07-12T03:19:58.504Z,7.43
2018-07-12T03:23:01.232Z,6.60
2018-07-12T03:26:04.010Z,9.00
2018-07-12T03:29:06.932Z,11.10
2018-07-12T03:32:09.675Z,10.00
2018-07-12T03:35:12.823Z,10.90
2018-07-12T03:38:15.520Z,8.23
2018-07-12T03:41:19.158Z,7.63
2018-07-12T03:44:21.905Z,7.93
2018-07-12T03:47:24.601Z,7.37
2018-07-12T03:50:27.411Z,9.60
2018-07-12T03:53:30.139Z,8.97
2018-07-12T03:56:33.870Z,6.75
2018-07-12T03:59:36.581Z,7.80
2018-07-12T04:02:39.280Z,7.07
2018-07-12T04:05:42.038Z,6.83
2018-07-12T04:08:45.155Z,6.67
2018-07-12T04:11:47.881Z,9.73
2018-07-12T04:14:50.706Z,8.20
2018-07-12T04:17:53.453Z,8.43
2018-07-12T04:20:56.183Z,6.60
2018-07-12T04:23:59.269Z,6.03
2018-07-12T04:27:02.007Z,7.90
2018-07-12T04:30:04.710Z,7.90
2018-07-12T04:33:07.811Z,8.07
2018-07-12T04:36:10.520Z,6.57
2018-07-12T04:39:13.310Z,8.47
2018-07-12T04:42:16.782Z,9.07
2018-07-12T04:45:19.555Z,6.87
2018-07-12T04:48:22.322Z,6.30
2018-07-12T04:51:25.193Z,7.87
2018-07-12T04:54:28.751Z,8.07
2018-07-12T04:57:31.524Z,8.63
2018-07-12T05:00:34.329Z,15.30
2018-07-12T05:03:37.039Z,9.10
2018-07-12T05:06:39.950Z,10.33
2018-07-12T05:09:43.393Z,10.97
2018-07-12T05:12:46.239Z,12.97
2018-07-12T05:15:49.339Z,8.50
2018-07-12T05:18:52.150Z,7.37
2018-07-12T05:21:55.111Z,8.83
2018-07-12T05:24:58.148Z,8.70
2018-07-12T05:28:00.994Z,7.23
2018-07-12T05:31:03.773Z,5.60
2018-07-12T05:34:06.590Z,6.73
2018-07-12T05:37:10.914Z,9.70
2018-07-12T05:40:15.314Z,7.80
2018-07-12T05:43:20.386Z,7.03
2018-07-12T05:46:24.658Z,6.30
2018-07-12T05:49:29.123Z,7.47
2018-07-12T05:52:34.722Z,6.03
2018-07-12T05:55:39.945Z,8.07
2018-07-12T05:58:44.488Z,6.30
2018-07-12T06:02:05.917Z,9.90
2018-07-12T06:05:10.698Z,9.30
2018-07-12T06:08:15.171Z,6.43
2018-07-12T06:11:19.456Z,6.50
2018-07-12T06:14:24.131Z,5.00
2018-07-12T06:17:28.333Z,5.70
2018-07-12T06:20:32.630Z,4.67
2018-07-12T06:23:38.081Z,5.83
2018-07-12T06:26:42.339Z,4.80
2018-07-12T06:29:46.604Z,3.93
2018-07-12T06:32:51.062Z,3.90
2018-07-12T06:35:55.735Z,6.27
2018-07-12T06:39:00.014Z,4.13
2018-07-12T06:42:04.298Z,8.23
2018-07-12T06:45:08.803Z,3.67
2018-07-12T06:48:13.772Z,3.77
2018-07-12T06:51:18.057Z,5.90
2018-07-12T06:54:23.291Z,4.87
2018-07-12T06:57:27.596Z,3.67
2018-07-12T07:00:32.544Z,6.27
2018-07-12T07:03:36.910Z,3.30
2018-07-12T07:06:41.271Z,2.90
2018-07-12T07:09:45.637Z,3.50
2018-07-12T07:12:50.054Z,4.50
2018-07-12T07:15:54.309Z,3.40
2018-07-12T07:18:58.815Z,2.87
2018-07-12T07:22:03.738Z,2.77
2018-07-12T07:25:07.989Z,3.30
2018-07-12T07:28:13.831Z,2.58
2018-07-12T07:31:18.097Z,3.63
2018-07-12T07:34:22.406Z,2.33
2018-07-12T07:37:26.729Z,2.17
2018-07-12T07:40:31.045Z,2.47
2018-07-12T07:43:36.011Z,2.10
2018-07-12T07:46:40.366Z,3.00
2018-07-12T07:49:45.921Z,4.77
2018-07-12T07:52:50.194Z,2.37
2018-07-12T07:55:54.604Z,2.80
2018-07-12T07:58:58.986Z,1.90
2018-07-12T08:02:03.629Z,2.03
2018-07-12T08:05:07.893Z,3.03
2018-07-12T08:08:12.511Z,2.50
2018-07-12T08:11:16.850Z,2.10
2018-07-12T08:14:21.143Z,3.93
2018-07-12T08:17:26.333Z,2.45
2018-07-12T08:20:30.656Z,2.30
2018-07-12T08:23:35.175Z,2.07
2018-07-12T08:26:39.406Z,4.13
2018-07-12T08:29:43.973Z,1.93
2018-07-12T08:32:48.364Z,1.92
2018-07-12T08:35:52.620Z,1.60
2018-07-12T08:38:57.134Z,3.80
2018-07-12T08:42:01.451Z,1.40
2018-07-12T08:45:06.103Z,1.43
2018-07-12T08:48:11.433Z,1.57
2018-07-12T08:51:34.698Z,1.50
2018-07-12T08:54:39.635Z,2.30
2018-07-12T08:57:43.864Z,2.43
2018-07-12T09:00:48.121Z,2.03
2018-07-12T09:03:52.486Z,2.70
2018-07-12T09:06:59.742Z,1.83
2018-07-12T09:10:04.142Z,3.83
2018-07-12T09:13:08.449Z,3.00
2018-07-12T09:16:12.737Z,3.40
2018-07-12T09:19:17.009Z,4.00
2018-07-12T09:22:21.846Z,2.20
2018-07-12T09:25:26.244Z,3.03
2018-07-12T09:28:30.622Z,1.77
2018-07-12T09:31:35.973Z,1.87
2018-07-12T09:34:40.246Z,1.70
2018-07-12T09:37:44.628Z,1.53
2018-07-12T09:40:48.914Z,1.67
2018-07-12T09:43:54.545Z,3.90
2018-07-12T09:47:00.401Z,2.67
2018-07-12T09:50:04.673Z,3.33
2018-07-12T09:53:09.092Z,2.90
2018-07-12T09:56:13.630Z,2.87
2018-07-12T09:59:18.853Z,2.47
2018-07-12T10:02:28.594Z,2.30
2018-07-12T10:05:38.170Z,2.53
2018-07-12T10:08:49.546Z,4.90
2018-07-12T10:11:59.265Z,4.83
2018-07-12T10:15:10.416Z,1.73
2018-07-12T10:18:20.037Z,1.85
2018-07-12T10:21:24.360Z,1.87
2018-07-12T10:24:28.637Z,2.67
2018-07-12T10:27:32.907Z,2.10
2018-07-12T10:30:37.215Z,1.87
2018-07-12T10:33:41.509Z,1.93
2018-07-12T10:36:46.401Z,9.47
2018-07-12T10:39:50.657Z,3.13
2018-07-12T10:42:55.160Z,2.57
2018-07-12T10:45:59.792Z,2.70
2018-07-12T10:49:04.095Z,2.00
2018-07-12T10:52:08.519Z,3.40
2018-07-12T10:55:12.813Z,2.37
2018-07-12T10:58:17.057Z,5.37
2018-07-12T11:01:21.930Z,1.90
2018-07-12T11:04:26.255Z,4.00
2018-07-12T11:07:30.542Z,1.90
2018-07-12T11:10:34.843Z,3.70
2018-07-12T11:13:52.248Z,2.07
2018-07-12T11:16:56.866Z,4.57
2018-07-12T11:20:01.168Z,3.87
2018-07-12T11:23:06.431Z,2.20
2018-07-12T11:26:10.854Z,2.13
2018-07-12T11:29:15.463Z,4.30
2018-07-12T11:32:20.739Z,2.50
2018-07-12T11:35:24.997Z,3.20
2018-07-12T11:38:29.914Z,2.73
2018-07-12T11:41:34.237Z,4.47
2018-07-12T11:44:38.624Z,3.40
2018-07-12T11:47:43.598Z,2.47
2018-07-12T11:50:48.251Z,3.40
2018-07-12T11:53:52.484Z,2.60
2018-07-12T11:56:56.753Z,6.10
2018-07-12T12:00:01.029Z,5.33
2018-07-12T12:03:05.413Z,4.50
2018-07-12T12:06:10.222Z,2.83
2018-07-12T12:09:14.279Z,2.77
2018-07-12T12:12:18.561Z,3.17
2018-07-12T12:15:22.818Z,3.33
2018-07-12T12:18:27.190Z,2.50
2018-07-12T12:21:31.488Z,3.70
2018-07-12T12:24:35.768Z,4.83
2018-07-12T12:27:40.051Z,3.40
2018-07-12T12:30:44.518Z,3.47
2018-07-12T12:33:48.978Z,3.33
2018-07-12T12:36:53.999Z,3.93
2018-07-12T12:39:58.289Z,4.87
2018-07-12T12:43:02.849Z,3.13
2018-07-12T12:46:07.177Z,2.50
2018-07-12T12:49:11.749Z,3.77
2018-07-12T12:52:16.275Z,4.43
2018-07-12T12:55:20.818Z,8.10
2018-07-12T12:58:25.126Z,2.87
2018-07-12T13:01:30.260Z,2.80
2018-07-12T13:04:35.157Z,3.97
2018-07-12T13:07:40.115Z,3.83
2018-07-12T13:10:44.699Z,3.93
2018-07-12T13:13:49.110Z,3.90
2018-07-12T13:16:53.359Z,2.40
2018-07-12T13:19:58.267Z,5.77
2018-07-12T13:23:02.579Z,2.43
2018-07-12T13:26:07.180Z,3.43
2018-07-12T13:29:11.635Z,5.03
2018-07-12T13:32:15.957Z,3.30
2018-07-12T13:35:20.244Z,5.10
2018-07-12T13:38:24.527Z,2.20
2018-07-12T13:41:29.141Z,2.80
2018-07-12T13:44:33.484Z,3.63
2018-07-12T13:47:37.886Z,2.60
2018-07-12T13:50:42.814Z,1.93
2018-07-12T13:53:47.437Z,2.55
2018-07-12T13:56:59.790Z,2.17
2018-07-12T14:00:07.420Z,3.63
2018-07-12T14:03:15.652Z,2.00
2018-07-12T14:06:23.347Z,2.10
2018-07-12T14:09:32.771Z,2.10
2018-07-12T14:12:39.145Z,1.80
2018-07-12T14:15:46.551Z,3.00
2018-07-12T14:19:10.684Z,1.80
2018-07-12T14:22:19.348Z,1.50
2018-07-12T14:25:25.007Z,2.90
2018-07-12T14:28:29.481Z,1.90
2018-07-12T14:31:33.857Z,1.80
2018-07-12T14:34:38.273Z,2.17
2018-07-12T14:37:42.588Z,1.97
2018-07-12T14:40:46.850Z,2.20
2018-07-12T14:43:51.266Z,2.00
2018-07-12T14:46:55.641Z,3.30
2018-07-12T14:49:59.944Z,3.60
2018-07-12T14:53:04.221Z,2.47
2018-07-12T14:56:08.489Z,4.60
2018-07-12T14:59:12.773Z,2.20
2018-07-12T15:02:17.176Z,4.67
2018-07-12T15:05:21.473Z,2.30
2018-07-12T15:08:25.959Z,1.47
2018-07-12T15:11:30.377Z,2.00
2018-07-12T15:14:34.784Z,3.87
2018-07-12T15:17:39.066Z,2.40
2018-07-12T15:20:44.210Z,2.03
2018-07-12T15:23:48.469Z,3.90
2018-07-12T15:26:52.790Z,3.80
2018-07-12T15:29:57.983Z,2.50
2018-07-12T15:33:02.313Z,2.33
2018-07-12T15:36:06.574Z,2.90
2018-07-12T15:39:11.881Z,2.63
2018-07-12T15:42:16.211Z,3.57
2018-07-12T15:45:20.481Z,2.13
2018-07-12T15:48:24.925Z,3.20
2018-07-12T15:51:29.240Z,2.83
2018-07-12T15:54:33.528Z,3.00
2018-07-12T15:57:38.484Z,2.87
2018-07-12T16:00:42.801Z,3.23
2018-07-12T16:03:47.057Z,2.67
2018-07-12T16:06:51.366Z,4.57
2018-07-12T16:09:55.631Z,2.80
2018-07-12T16:13:00.265Z,2.07
2018-07-12T16:16:04.601Z,4.03
2018-07-12T16:19:08.876Z,2.40
2018-07-12T16:22:13.233Z,3.03
2018-07-12T16:25:17.542Z,3.90
2018-07-12T16:28:22.081Z,3.13
2018-07-12T16:31:26.475Z,2.83
2018-07-12T16:34:31.401Z,2.93
2018-07-12T16:37:35.785Z,3.17
2018-07-12T16:40:40.293Z,1.57
2018-07-12T16:43:44.837Z,1.80
2018-07-12T16:46:50.240Z,1.63
2018-07-12T16:49:54.491Z,2.70
2018-07-12T16:52:58.840Z,1.23
2018-07-12T16:56:19.865Z,4.13
2018-07-12T16:59:24.297Z,1.70
2018-07-12T17:02:28.581Z,1.67
2018-07-12T17:05:33.579Z,1.37
2018-07-12T17:08:38.106Z,1.23
2018-07-12T17:11:42.656Z,1.50
2018-07-12T17:14:46.933Z,1.40
2018-07-12T17:17:51.205Z,1.80
2018-07-12T17:20:55.624Z,1.67
2018-07-12T17:24:00.733Z,2.77
2018-07-12T17:27:04.746Z,1.40
2018-07-12T17:30:09.013Z,1.70
2018-07-12T17:33:13.348Z,1.30
2018-07-12T17:36:18.017Z,3.13
2018-07-12T17:39:22.310Z,2.87
2018-07-12T17:42:27.602Z,1.77
2018-07-12T17:45:31.808Z,1.50
2018-07-12T17:48:36.157Z,2.20
2018-07-12T17:51:40.465Z,1.87
2018-07-12T17:54:44.853Z,2.30
2018-07-12T17:57:49.379Z,1.60
2018-07-12T18:00:54.696Z,1.70
2018-07-12T18:03:59.027Z,1.17
2018-07-12T18:07:03.390Z,1.33
2018-07-12T18:10:07.702Z,4.00
2018-07-12T18:13:11.975Z,1.37
2018-07-12T18:16:18.796Z,1.57
2018-07-12T18:19:23.469Z,1.23
2018-07-12T18:22:28.161Z,1.50
2018-07-12T18:25:33.553Z,2.00
2018-07-12T18:28:38.957Z,1.40
2018-07-12T18:31:43.458Z,1.10
2018-07-12T18:34:47.766Z,1.60
2018-07-12T18:37:52.464Z,1.40
2018-07-12T18:40:57.393Z,2.07
2018-07-12T18:44:01.807Z,1.33
2018-07-12T18:47:06.633Z,1.63
2018-07-12T18:50:11.030Z,2.30
2018-07-12T18:53:16.504Z,4.83
2018-07-12T18:56:21.569Z,4.43
2018-07-12T18:59:25.942Z,2.13
2018-07-12T19:02:30.392Z,3.03
2018-07-12T19:05:36.182Z,2.07
2018-07-12T19:08:40.567Z,2.83
2018-07-12T19:11:44.848Z,1.50
2018-07-12T19:14:49.192Z,1.17
2018-07-12T19:17:54.411Z,3.00
2018-07-12T19:20:58.844Z,4.37
2018-07-12T19:24:04.227Z,1.13
2018-07-12T19:27:08.699Z,1.10
2018-07-12T19:30:13.210Z,7.23
2018-07-12T19:33:17.810Z,2.37
2018-07-12T19:36:22.398Z,2.57
2018-07-12T19:39:26.706Z,3.47
2018-07-12T19:42:31.010Z,3.90
2018-07-12T19:45:35.337Z,3.43
2018-07-12T19:48:39.880Z,1.70
2018-07-12T19:51:47.833Z,3.00
2018-07-12T19:54:52.113Z,2.03
2018-07-12T19:57:56.818Z,6.83
2018-07-12T20:01:01.519Z,6.10
2018-07-12T20:04:06.145Z,7.90
2018-07-12T20:07:10.749Z,6.50
2018-07-12T20:10:15.978Z,7.17
2018-07-12T20:13:20.446Z,9.83
2018-07-12T20:16:24.797Z,17.10
2018-07-12T20:19:29.258Z,14.37
2018-07-12T20:22:33.571Z,12.10
2018-07-12T20:25:38.968Z,7.63
2018-07-12T20:28:43.559Z,12.77
2018-07-12T20:31:47.976Z,4.90
2018-07-12T20:34:53.223Z,9.87
2018-07-12T20:37:57.499Z,6.00
2018-07-12T20:41:01.948Z,12.70
2018-07-12T20:44:06.310Z,7.23
2018-07-12T20:47:11.702Z,6.33
2018-07-12T20:50:16.059Z,4.97
2018-07-12T20:53:20.321Z,4.37
2018-07-12T20:56:25.206Z,3.30
2018-07-12T20:59:29.518Z,6.22
2018-07-12T21:02:34.123Z,6.00
2018-07-12T21:05:38.427Z,2.70
2018-07-12T21:08:43.402Z,2.87
2018-07-12T21:11:48.742Z,5.10
2018-07-12T21:14:53.007Z,4.37
2018-07-12T21:17:58.041Z,2.70
2018-07-12T21:21:02.719Z,2.37
2018-07-12T21:24:07.069Z,4.90
2018-07-12T21:27:11.394Z,2.07
2018-07-12T21:30:16.362Z,2.97
2018-07-12T21:33:20.688Z,7.40
2018-07-12T21:36:25.241Z,2.80
2018-07-12T21:39:29.506Z,3.03
2018-07-12T21:42:34.706Z,4.20
2018-07-12T21:45:39.173Z,2.97
2018-07-12T21:48:43.857Z,4.93
2018-07-12T21:51:48.268Z,2.87
2018-07-12T21:54:52.568Z,5.17
2018-07-12T21:57:56.886Z,2.27
2018-07-12T22:01:01.411Z,6.80
2018-07-12T22:04:05.748Z,6.80
2018-07-12T22:08:21.574Z,9.47
2018-07-12T22:11:26.670Z,5.53
2018-07-12T22:14:31.200Z,4.27
2018-07-12T22:17:35.705Z,7.13
2018-07-12T22:20:41.130Z,5.77
2018-07-12T22:23:45.425Z,8.60
2018-07-12T22:26:49.654Z,6.97
2018-07-12T22:29:53.754Z,4.27
2018-07-12T22:32:58.946Z,3.60
2018-07-12T22:36:03.244Z,5.97
2018-07-12T22:39:08.265Z,6.33
2018-07-12T22:42:12.567Z,5.17
2018-07-12T22:45:17.321Z,3.00
2018-07-12T22:48:21.596Z,4.37
2018-07-12T22:51:25.733Z,6.53
2018-07-12T22:54:31.607Z,3.43
2018-07-12T22:57:36.175Z,4.77
2018-07-12T23:00:40.435Z,4.43
2018-07-12T23:03:44.810Z,3.50
2018-07-12T23:06:49.172Z,3.27
2018-07-12T23:09:53.407Z,4.07
2018-07-12T23:12:57.757Z,3.17
2018-07-12T23:16:02.092Z,3.47
2018-07-12T23:19:06.877Z,2.92
2018-07-12T23:22:11.289Z,3.20
2018-07-12T23:25:15.744Z,3.90
2018-07-12T23:28:19.796Z,3.50
2018-07-12T23:31:24.125Z,4.97
2018-07-12T23:34:28.761Z,10.83
2018-07-12T23:37:33.063Z,5.63
2018-07-12T23:40:37.709Z,4.80
2018-07-12T23:43:42.013Z,4.73
2018-07-12T23:46:46.345Z,4.23
2018-07-12T23:49:50.997Z,3.60
2018-07-12T23:52:55.392Z,5.20
2018-07-12T23:55:59.842Z,4.47
2018-07-12T23:59:04.143Z,3.23
